createdAt,value
2022-12-03T00:00:23.390Z,11.52
2022-12-03T00:02:50.267Z,11.05
2022-12-03T00:05:17.099Z,10.00
2022-12-03T00:07:44.030Z,10.10
2022-12-03T00:10:11.486Z,10.60
2022-12-03T00:12:38.370Z,10.43
2022-12-03T00:15:05.786Z,12.60
2022-12-03T00:17:32.783Z,10.98
2022-12-03T00:19:59.568Z,10.15
2022-12-03T00:22:26.477Z,13.85
2022-12-03T00:24:53.624Z,12.07
2022-12-03T00:27:20.675Z,11.60
2022-12-03T00:29:47.498Z,12.23
2022-12-03T00:32:14.333Z,11.50
2022-12-03T00:34:41.088Z,10.23
2022-12-03T00:37:07.915Z,11.18
2022-12-03T00:39:34.747Z,8.68
2022-12-03T00:42:01.600Z,11.70
2022-12-03T00:44:28.441Z,11.23
2022-12-03T00:46:55.260Z,13.38
2022-12-03T00:49:22.063Z,9.60
2022-12-03T00:51:49.008Z,11.50
2022-12-03T00:54:16.029Z,8.27
2022-12-03T00:56:42.807Z,9.95
2022-12-03T00:59:09.601Z,12.45
2022-12-03T01:01:36.481Z,11.52
2022-12-03T01:04:03.356Z,11.32
2022-12-03T01:06:30.110Z,10.43
2022-12-03T01:08:56.870Z,10.00
2022-12-03T01:11:39.127Z,8.20
2022-12-03T01:14:07.110Z,12.68
2022-12-03T01:16:34.268Z,9.02
2022-12-03T01:19:01.181Z,10.60
2022-12-03T01:21:29.380Z,12.10
2022-12-03T01:23:56.495Z,10.95
2022-12-03T01:26:23.453Z,9.32
2022-12-03T01:28:50.230Z,8.98
2022-12-03T01:31:35.948Z,12.75
2022-12-03T01:34:02.840Z,13.75
2022-12-03T01:36:29.597Z,11.65
2022-12-03T01:38:56.326Z,10.50
2022-12-03T01:41:24.772Z,10.35
2022-12-03T01:43:52.687Z,12.50
2022-12-03T01:46:21.205Z,10.32
2022-12-03T01:48:49.298Z,11.05
2022-12-03T01:51:16.148Z,11.52
2022-12-03T01:53:43.616Z,12.25
2022-12-03T01:56:14.814Z,12.45
2022-12-03T01:58:42.059Z,12.93
2022-12-03T02:01:19.022Z,13.35
2022-12-03T02:03:46.328Z,12.07
2022-12-03T02:06:18.106Z,12.48
2022-12-03T02:11:11.552Z,10.18
2022-12-03T02:13:38.438Z,13.57
2022-12-03T02:16:05.393Z,12.93
2022-12-03T02:18:35.077Z,12.88
2022-12-03T02:21:06.638Z,11.68
2022-12-03T02:23:42.623Z,14.65
2022-12-03T02:26:09.635Z,13.07
2022-12-03T02:28:38.127Z,10.82
2022-12-03T02:31:05.438Z,13.18
2022-12-03T02:33:32.415Z,10.27
2022-12-03T02:36:03.612Z,11.18
2022-12-03T02:38:32.422Z,11.13
2022-12-03T02:41:02.238Z,13.07
2022-12-03T02:43:29.062Z,14.93
2022-12-03T02:45:58.373Z,11.25
2022-12-03T02:48:51.435Z,12.23
2022-12-03T02:51:18.284Z,13.32
2022-12-03T02:53:46.343Z,9.82
2022-12-03T02:56:15.827Z,11.82
2022-12-03T02:58:43.943Z,13.20
2022-12-03T03:01:10.955Z,11.05
2022-12-03T03:03:38.066Z,12.00
2022-12-03T03:06:06.570Z,10.45
2022-12-03T03:08:33.796Z,15.30
2022-12-03T03:11:01.035Z,12.40
2022-12-03T03:13:29.830Z,10.18
2022-12-03T03:15:56.724Z,12.55
2022-12-03T03:18:23.605Z,11.10
2022-12-03T03:20:50.452Z,10.48
2022-12-03T03:23:18.565Z,12.15
2022-12-03T03:25:59.829Z,11.27
2022-12-03T03:28:27.115Z,10.45
2022-12-03T03:30:54.050Z,11.48
2022-12-03T03:33:20.885Z,10.48
2022-12-03T03:35:48.172Z,11.80
2022-12-03T03:38:15.833Z,11.10
2022-12-03T03:40:42.941Z,9.27
2022-12-03T03:43:09.754Z,11.93
2022-12-03T03:45:36.545Z,8.77
2022-12-03T03:48:03.622Z,13.50
2022-12-03T03:50:31.404Z,8.52
2022-12-03T03:52:58.984Z,11.13
2022-12-03T03:55:25.857Z,8.68
2022-12-03T03:57:52.697Z,7.95
2022-12-03T04:00:19.639Z,7.25
2022-12-03T04:02:46.767Z,9.85
2022-12-03T04:05:17.950Z,8.73
2022-12-03T04:07:44.815Z,8.50
2022-12-03T04:10:31.040Z,8.82
2022-12-03T04:12:57.920Z,8.52
2022-12-03T04:15:25.349Z,13.32
2022-12-03T04:18:11.348Z,7.55
2022-12-03T04:20:38.697Z,8.50
2022-12-03T04:23:05.750Z,8.55
2022-12-03T04:25:51.410Z,8.23
2022-12-03T04:28:36.996Z,9.50
2022-12-03T04:31:23.911Z,10.30
2022-12-03T04:34:09.484Z,8.95
2022-12-03T04:36:36.299Z,8.25
2022-12-03T04:39:03.086Z,12.70
2022-12-03T04:41:29.913Z,11.48
2022-12-03T04:44:15.358Z,8.10
2022-12-03T04:46:42.129Z,11.02
2022-12-03T04:49:08.925Z,10.77
2022-12-03T04:51:35.741Z,12.13
2022-12-03T04:54:02.592Z,11.75
2022-12-03T04:56:29.383Z,9.15
2022-12-03T04:58:56.135Z,9.57
2022-12-03T05:01:23.140Z,10.85
2022-12-03T05:03:49.900Z,10.85
2022-12-03T05:06:16.945Z,12.60
2022-12-03T05:08:43.705Z,11.95
2022-12-03T05:11:10.458Z,11.95
2022-12-03T05:13:37.269Z,10.30
2022-12-03T05:16:04.102Z,10.45
2022-12-03T05:18:30.932Z,13.82
2022-12-03T05:20:57.704Z,14.50
2022-12-03T05:23:24.463Z,11.35
2022-12-03T05:25:51.303Z,8.85
2022-12-03T05:28:18.087Z,15.20
2022-12-03T05:30:44.900Z,9.32
2022-12-03T05:33:11.720Z,10.43
2022-12-03T05:35:38.488Z,11.82
2022-12-03T05:38:05.406Z,12.18
2022-12-03T05:40:32.264Z,12.85
2022-12-03T05:43:01.197Z,11.55
2022-12-03T05:45:29.505Z,15.18
2022-12-03T05:47:56.985Z,12.88
2022-12-03T05:50:25.794Z,12.45
2022-12-03T05:52:52.596Z,13.18
2022-12-03T05:55:19.630Z,13.35
2022-12-03T05:57:46.885Z,12.55
2022-12-03T06:00:15.258Z,18.45
2022-12-03T06:02:42.114Z,14.32
2022-12-03T06:05:09.657Z,12.35
2022-12-03T06:07:36.563Z,13.65
2022-12-03T06:10:04.721Z,11.13
2022-12-03T06:12:31.978Z,14.48
2022-12-03T06:14:59.607Z,13.35
2022-12-03T06:17:26.587Z,12.43
2022-12-03T06:19:53.396Z,13.35
2022-12-03T06:22:20.379Z,15.10
2022-12-03T06:24:47.277Z,12.98
2022-12-03T06:27:14.486Z,14.02
2022-12-03T06:29:41.253Z,13.25
2022-12-03T06:32:08.302Z,11.43
2022-12-03T06:34:35.482Z,11.73
2022-12-03T06:37:02.307Z,10.55
2022-12-03T06:39:29.103Z,12.45
2022-12-03T06:41:58.796Z,13.15
2022-12-03T06:44:25.634Z,9.27
2022-12-03T06:46:52.413Z,10.50
2022-12-03T06:49:19.323Z,11.32
2022-12-03T06:51:46.077Z,10.35
2022-12-03T06:54:12.861Z,10.98
2022-12-03T06:56:45.144Z,10.18
2022-12-03T06:59:12.548Z,10.68
2022-12-03T07:01:39.345Z,11.77
2022-12-03T07:04:06.146Z,9.68
2022-12-03T07:06:32.905Z,15.23
2022-12-03T07:08:59.658Z,10.57
2022-12-03T07:11:32.452Z,10.50
2022-12-03T07:14:04.654Z,14.05
2022-12-03T07:16:32.607Z,12.05
2022-12-03T07:19:00.545Z,14.88
2022-12-03T07:21:27.330Z,9.20
2022-12-03T07:23:54.088Z,10.50
2022-12-03T07:26:20.976Z,12.35
2022-12-03T07:28:48.364Z,11.40
2022-12-03T07:31:15.596Z,13.07
2022-12-03T07:33:44.257Z,12.07
2022-12-03T07:36:11.066Z,8.68
2022-12-03T07:38:37.901Z,10.20
2022-12-03T07:41:04.696Z,10.77
2022-12-03T07:43:31.536Z,9.77
2022-12-03T07:45:58.314Z,7.53
2022-12-03T07:48:27.413Z,9.80
2022-12-03T07:50:54.170Z,11.30
2022-12-03T07:53:21.147Z,9.88
2022-12-03T07:55:47.968Z,8.75
2022-12-03T07:58:14.757Z,8.43
2022-12-03T08:00:41.964Z,13.90
2022-12-03T08:03:08.820Z,13.35
2022-12-03T08:05:35.575Z,12.65
2022-12-03T08:08:02.425Z,8.73
2022-12-03T08:10:29.235Z,9.15
2022-12-03T08:12:57.020Z,8.43
2022-12-03T08:15:24.909Z,9.70
2022-12-03T08:17:54.398Z,12.20
2022-12-03T08:20:22.969Z,8.63
2022-12-03T08:22:53.654Z,10.07
2022-12-03T08:25:22.360Z,10.00
2022-12-03T08:27:49.985Z,9.95
2022-12-03T08:30:17.558Z,8.32
2022-12-03T08:32:44.877Z,10.25
2022-12-03T08:35:13.441Z,14.32
2022-12-03T08:37:40.543Z,11.40
2022-12-03T08:40:21.981Z,10.38
2022-12-03T08:42:49.122Z,7.95
2022-12-03T08:45:35.141Z,10.50
2022-12-03T08:48:03.921Z,11.57
2022-12-03T08:50:31.993Z,7.25
2022-12-03T08:53:19.038Z,7.38
2022-12-03T08:55:48.641Z,7.28
2022-12-03T08:58:15.379Z,12.95
2022-12-03T09:00:42.862Z,8.50
2022-12-03T09:03:12.827Z,7.18
2022-12-03T09:05:40.446Z,9.75
2022-12-03T09:08:07.379Z,6.60
2022-12-03T09:10:34.181Z,8.90
2022-12-03T09:13:00.927Z,8.23
2022-12-03T09:15:28.471Z,6.88
2022-12-03T09:17:55.239Z,7.85
2022-12-03T09:20:22.079Z,6.82
2022-12-03T09:22:48.924Z,5.38
2022-12-03T09:25:16.501Z,6.13
2022-12-03T09:27:43.274Z,9.23
2022-12-03T09:30:10.499Z,7.10
2022-12-03T09:32:37.252Z,9.10
2022-12-03T09:35:05.001Z,6.75
2022-12-03T09:37:31.877Z,7.70
2022-12-03T09:39:58.632Z,6.78
2022-12-03T09:42:25.732Z,8.93
2022-12-03T09:44:52.887Z,6.55
2022-12-03T09:47:20.190Z,10.52
2022-12-03T09:49:46.998Z,5.15
2022-12-03T09:52:18.187Z,6.78
2022-12-03T09:54:47.603Z,6.55
2022-12-03T09:57:15.389Z,7.03
2022-12-03T09:59:42.250Z,6.28
2022-12-03T10:02:20.364Z,6.90
2022-12-03T10:04:47.539Z,7.45
2022-12-03T10:07:14.505Z,7.18
2022-12-03T10:09:41.398Z,7.47
2022-12-03T10:12:11.111Z,5.82
2022-12-03T10:14:38.261Z,5.20
2022-12-03T10:17:05.218Z,6.22
2022-12-03T10:19:32.980Z,4.75
2022-12-03T10:21:59.758Z,7.40
2022-12-03T10:24:28.910Z,5.90
2022-12-03T10:26:57.654Z,4.32
2022-12-03T10:29:31.593Z,5.18
2022-12-03T10:32:02.301Z,6.38
2022-12-03T10:34:30.754Z,6.47
2022-12-03T10:37:11.174Z,5.80
2022-12-03T10:40:09.136Z,7.95
2022-12-03T10:42:37.342Z,6.55
2022-12-03T10:45:21.157Z,7.45
2022-12-03T10:48:03.334Z,5.03
2022-12-03T10:50:30.249Z,6.88
2022-12-03T10:52:57.047Z,5.55
2022-12-03T10:55:24.090Z,6.15
2022-12-03T10:57:50.930Z,7.90
2022-12-03T11:00:19.015Z,9.00
2022-12-03T11:02:53.054Z,4.63
2022-12-03T11:05:26.754Z,7.97
2022-12-03T11:07:53.849Z,5.28
2022-12-03T11:10:20.828Z,5.85
2022-12-03T11:13:06.514Z,5.43
2022-12-03T11:15:44.137Z,5.97
2022-12-03T11:18:11.075Z,5.10
2022-12-03T11:21:01.150Z,7.30
2022-12-03T11:23:48.193Z,7.18
2022-12-03T11:26:18.848Z,5.38
2022-12-03T11:28:46.152Z,5.85
2022-12-03T11:31:36.473Z,4.88
2022-12-03T11:34:31.441Z,5.95
2022-12-03T11:37:10.689Z,4.90
2022-12-03T11:39:49.735Z,6.25
2022-12-03T11:42:25.748Z,6.95
2022-12-03T11:45:04.901Z,8.50
2022-12-03T11:48:00.110Z,6.18
2022-12-03T11:50:39.757Z,5.88
2022-12-03T11:53:15.537Z,5.43
2022-12-03T11:55:48.489Z,6.22
2022-12-03T11:58:34.164Z,6.60
2022-12-03T12:01:02.070Z,5.93
2022-12-03T12:03:55.435Z,5.85
2022-12-03T12:06:22.354Z,5.60
2022-12-03T12:08:52.199Z,8.15
2022-12-03T12:11:41.390Z,5.88
2022-12-03T12:14:12.220Z,6.68
2022-12-03T12:16:41.453Z,6.00
2022-12-03T12:19:27.185Z,8.88
2022-12-03T12:21:54.138Z,7.93
2022-12-03T12:24:33.345Z,9.45
2022-12-03T12:27:01.606Z,8.57
2022-12-03T12:29:28.494Z,8.80
2022-12-03T12:32:18.497Z,9.02
2022-12-03T12:34:47.034Z,5.25
2022-12-03T12:37:34.444Z,8.00
2022-12-03T12:40:02.086Z,5.78
2022-12-03T12:42:30.514Z,6.68
2022-12-03T12:44:59.851Z,9.30
2022-12-03T12:47:28.554Z,7.47
2022-12-03T12:49:55.865Z,9.98
2022-12-03T12:52:22.773Z,6.40
2022-12-03T12:54:49.544Z,7.20
2022-12-03T12:57:20.650Z,6.35
2022-12-03T12:59:47.405Z,6.28
2022-12-03T13:02:37.597Z,8.20
2022-12-03T13:05:04.774Z,6.50
2022-12-03T13:07:31.895Z,5.95
2022-12-03T13:09:59.527Z,8.32
2022-12-03T13:12:27.020Z,7.97
2022-12-03T13:14:58.261Z,8.85
2022-12-03T13:17:26.104Z,6.60
2022-12-03T13:20:05.128Z,9.63
2022-12-03T13:22:33.734Z,6.85
2022-12-03T13:25:03.678Z,8.07
2022-12-03T13:27:30.428Z,9.50
2022-12-03T13:29:57.424Z,8.35
2022-12-03T13:32:43.218Z,7.32
2022-12-03T13:35:10.018Z,8.15
2022-12-03T13:37:37.288Z,7.72
2022-12-03T13:40:26.354Z,9.48
2022-12-03T13:42:54.350Z,6.13
2022-12-03T13:45:22.355Z,10.77
2022-12-03T13:47:52.712Z,6.00
2022-12-03T13:50:39.410Z,10.23
2022-12-03T13:53:18.640Z,9.10
2022-12-03T13:55:46.640Z,8.23
2022-12-03T13:58:13.617Z,9.95
2022-12-03T14:00:40.449Z,8.25
2022-12-03T14:03:07.275Z,8.77
2022-12-03T14:05:34.065Z,10.48
2022-12-03T14:08:03.639Z,8.20
2022-12-03T14:10:30.677Z,10.35
2022-12-03T14:12:57.792Z,11.93
2022-12-03T14:15:26.318Z,10.18
2022-12-03T14:17:53.349Z,10.02
2022-12-03T14:20:20.189Z,9.82
2022-12-03T14:22:47.022Z,8.63
2022-12-03T14:25:13.821Z,8.00
2022-12-03T14:27:40.642Z,8.90
2022-12-03T14:30:07.750Z,9.40
2022-12-03T14:32:34.548Z,10.80
2022-12-03T14:35:06.611Z,11.20
2022-12-03T14:37:36.484Z,10.23
2022-12-03T14:40:03.942Z,10.65
2022-12-03T14:42:30.758Z,9.75
2022-12-03T14:44:58.134Z,11.27
2022-12-03T14:47:24.908Z,9.93
2022-12-03T14:49:52.439Z,9.70
2022-12-03T14:52:19.670Z,9.15
2022-12-03T14:54:46.487Z,11.00
2022-12-03T14:57:14.198Z,9.38
2022-12-03T14:59:41.596Z,9.45
2022-12-03T15:02:08.836Z,12.18
2022-12-03T15:04:35.703Z,11.43
2022-12-03T15:07:02.533Z,11.23
2022-12-03T15:09:29.304Z,12.73
2022-12-03T15:11:56.217Z,10.30
2022-12-03T15:14:23.031Z,12.43
2022-12-03T15:16:49.925Z,11.23
2022-12-03T15:19:17.038Z,12.48
2022-12-03T15:21:43.831Z,12.90
2022-12-03T15:24:10.794Z,11.60
2022-12-03T15:26:37.578Z,8.90
2022-12-03T15:29:04.381Z,10.50
2022-12-03T15:31:31.236Z,12.35
2022-12-03T15:33:58.129Z,13.30
2022-12-03T15:36:24.950Z,11.45
2022-12-03T15:38:51.751Z,10.10
2022-12-03T15:41:21.633Z,12.70
2022-12-03T15:43:48.925Z,10.32
2022-12-03T15:46:15.876Z,13.05
2022-12-03T15:48:43.403Z,13.43
2022-12-03T15:51:10.163Z,11.88
2022-12-03T15:53:36.930Z,12.23
2022-12-03T15:56:03.844Z,12.40
2022-12-03T15:58:30.724Z,11.10
2022-12-03T16:00:57.505Z,12.10
2022-12-03T16:03:24.462Z,11.95
2022-12-03T16:05:51.238Z,11.05
2022-12-03T16:08:18.088Z,11.65
2022-12-03T16:10:44.891Z,11.65
2022-12-03T16:13:11.641Z,12.98
2022-12-03T16:15:38.568Z,12.18
2022-12-03T16:18:05.438Z,11.20
2022-12-03T16:20:32.200Z,11.82
2022-12-03T16:22:58.941Z,14.45
2022-12-03T16:25:25.715Z,11.93
2022-12-03T16:27:52.674Z,11.65
2022-12-03T16:30:19.642Z,13.32
2022-12-03T16:32:46.412Z,15.23
2022-12-03T16:35:13.185Z,13.10
2022-12-03T16:37:39.917Z,10.80
2022-12-03T16:40:07.264Z,14.75
2022-12-03T16:42:34.054Z,11.68
2022-12-03T16:45:00.790Z,14.13
2022-12-03T16:47:33.446Z,14.23
2022-12-03T16:50:01.290Z,16.80
2022-12-03T16:52:28.121Z,12.05
2022-12-03T16:54:54.853Z,11.77
2022-12-03T16:57:21.622Z,13.82
2022-12-03T16:59:48.392Z,13.70
2022-12-03T17:02:15.232Z,12.77
2022-12-03T17:04:42.129Z,17.05
2022-12-03T17:07:09.064Z,15.60
2022-12-03T17:09:35.831Z,18.15
2022-12-03T17:12:02.620Z,14.52
2022-12-03T17:14:33.282Z,14.20
2022-12-03T17:17:00.440Z,14.55
2022-12-03T17:19:27.263Z,16.00
2022-12-03T17:21:54.268Z,15.55
2022-12-03T17:24:21.597Z,14.57
2022-12-03T17:26:48.548Z,13.48
2022-12-03T17:29:15.408Z,16.33
2022-12-03T17:31:42.919Z,14.63
2022-12-03T17:34:10.232Z,15.73
2022-12-03T17:36:37.047Z,12.40
2022-12-03T17:39:03.830Z,18.08
2022-12-03T17:41:30.653Z,14.23
2022-12-03T17:43:57.451Z,12.52
2022-12-03T17:46:24.259Z,16.52
2022-12-03T17:48:51.067Z,16.90
2022-12-03T17:51:20.827Z,14.18
2022-12-03T17:53:47.627Z,18.95
2022-12-03T17:56:14.815Z,16.08
2022-12-03T17:58:41.595Z,13.57
2022-12-03T18:01:10.425Z,16.58
2022-12-03T18:03:37.358Z,15.48
2022-12-03T18:06:04.689Z,16.55
2022-12-03T18:08:31.428Z,15.60
2022-12-03T18:10:58.188Z,15.32
2022-12-03T18:13:25.061Z,14.27
2022-12-03T18:15:51.867Z,15.38
2022-12-03T18:18:18.701Z,15.68
2022-12-03T18:20:45.525Z,17.77
2022-12-03T18:23:12.552Z,20.70
2022-12-03T18:25:39.435Z,16.75
2022-12-03T18:28:06.282Z,16.73
2022-12-03T18:30:33.056Z,15.75
2022-12-03T18:32:59.844Z,16.48
2022-12-03T18:35:26.730Z,13.50
2022-12-03T18:37:53.566Z,17.50
2022-12-03T18:40:22.554Z,16.70
2022-12-03T18:42:49.366Z,15.05
2022-12-03T18:45:16.354Z,20.08
2022-12-03T18:47:43.415Z,18.55
2022-12-03T18:50:10.945Z,16.42
2022-12-03T18:52:37.800Z,19.13
2022-12-03T18:55:05.198Z,15.48
2022-12-03T18:57:31.990Z,19.58
2022-12-03T18:59:58.869Z,20.92
2022-12-03T19:02:54.360Z,19.85
2022-12-03T19:05:12.862Z,16.90
2022-12-03T19:07:39.727Z,17.58
2022-12-03T19:10:07.285Z,18.17
2022-12-03T19:12:34.057Z,15.73
2022-12-03T19:15:01.321Z,16.63
2022-12-03T19:17:28.173Z,19.35
2022-12-03T19:19:55.333Z,18.27
2022-12-03T19:22:22.527Z,16.33
2022-12-03T19:24:49.634Z,16.92
2022-12-03T19:27:16.417Z,17.23
2022-12-03T19:29:43.276Z,16.98
2022-12-03T19:32:10.141Z,19.90
2022-12-03T19:34:36.993Z,19.08
2022-12-03T19:37:03.779Z,17.58
2022-12-03T19:39:30.576Z,16.58
2022-12-03T19:41:57.694Z,17.70
2022-12-03T19:44:24.554Z,18.00
2022-12-03T19:46:51.361Z,17.77
2022-12-03T19:49:20.996Z,16.65
2022-12-03T19:51:47.915Z,17.02
2022-12-03T19:54:15.082Z,17.88
2022-12-03T19:56:42.400Z,17.33
2022-12-03T19:59:11.421Z,17.27
2022-12-03T20:01:40.504Z,18.35
2022-12-03T20:04:08.021Z,20.92
2022-12-03T20:06:37.856Z,17.67
2022-12-03T20:09:10.747Z,23.83
2022-12-03T20:11:38.363Z,17.17
2022-12-03T20:14:06.731Z,18.40
2022-12-03T20:16:34.011Z,17.02
2022-12-03T20:19:05.569Z,18.83
2022-12-03T20:21:33.210Z,17.88
2022-12-03T20:24:00.193Z,16.55
2022-12-03T20:26:27.495Z,19.33
2022-12-03T20:28:55.074Z,18.45
2022-12-03T20:31:23.749Z,20.23
2022-12-03T20:33:51.784Z,22.98
2022-12-03T20:36:19.401Z,16.50
2022-12-03T20:38:46.242Z,18.98
2022-12-03T20:41:14.694Z,19.45
2022-12-03T20:43:41.851Z,19.38
2022-12-03T20:46:14.423Z,16.65
2022-12-03T20:48:41.430Z,20.23
2022-12-03T20:51:09.479Z,22.42
2022-12-03T20:53:36.678Z,14.90
2022-12-03T20:56:04.632Z,16.92
2022-12-03T20:58:31.851Z,15.88
2022-12-03T21:01:14.005Z,17.27
2022-12-03T21:03:42.875Z,18.63
2022-12-03T21:06:10.776Z,18.67
2022-12-03T21:08:42.481Z,16.17
2022-12-03T21:11:10.288Z,16.52
2022-12-03T21:13:37.298Z,19.02
2022-12-03T21:16:05.486Z,15.05
2022-12-03T21:18:32.603Z,19.33
2022-12-03T21:21:00.387Z,20.23
2022-12-03T21:23:29.804Z,17.80
2022-12-03T21:26:06.846Z,19.67
2022-12-03T21:28:33.678Z,19.80
2022-12-03T21:31:05.321Z,20.45
2022-12-03T21:35:59.360Z,17.67
2022-12-03T21:38:29.561Z,16.50
2022-12-03T21:40:56.611Z,17.13
2022-12-03T21:43:23.757Z,17.90
2022-12-03T21:45:50.947Z,16.98
2022-12-03T21:48:18.312Z,16.88
2022-12-03T21:50:57.823Z,16.25
2022-12-03T21:53:24.598Z,16.83
2022-12-03T21:55:51.340Z,19.77
2022-12-03T21:58:18.093Z,18.40
2022-12-03T22:00:44.888Z,14.85
2022-12-03T22:03:11.764Z,17.17
2022-12-03T22:05:38.763Z,19.63
2022-12-03T22:08:06.105Z,21.10
2022-12-03T22:10:33.328Z,15.45
2022-12-03T22:13:00.088Z,18.23
2022-12-03T22:15:26.880Z,18.40
2022-12-03T22:17:53.649Z,19.35
2022-12-03T22:20:20.479Z,18.20
2022-12-03T22:22:47.283Z,20.77
2022-12-03T22:25:14.051Z,24.20
2022-12-03T22:27:40.806Z,20.98
2022-12-03T22:30:07.836Z,20.67
2022-12-03T22:32:34.644Z,16.60
2022-12-03T22:35:01.417Z,18.13
2022-12-03T22:37:28.206Z,17.63
2022-12-03T22:39:55.139Z,17.58
2022-12-03T22:42:22.068Z,15.93
2022-12-03T22:44:48.869Z,16.77
2022-12-03T22:47:15.648Z,19.90
2022-12-03T22:49:42.413Z,15.80
2022-12-03T22:52:09.235Z,17.58
2022-12-03T22:54:36.014Z,16.77
2022-12-03T22:57:02.972Z,16.73
2022-12-03T22:59:29.736Z,16.63
2022-12-03T23:01:56.459Z,15.57
2022-12-03T23:04:23.173Z,19.80
2022-12-03T23:06:49.982Z,16.20
2022-12-03T23:09:16.794Z,20.15
2022-12-03T23:11:44.389Z,16.00
2022-12-03T23:14:12.145Z,16.00
2022-12-03T23:16:39.771Z,17.75
2022-12-03T23:19:06.632Z,19.38
2022-12-03T23:21:34.395Z,18.48
2022-12-03T23:24:02.433Z,17.67
2022-12-03T23:26:29.394Z,15.82
2022-12-03T23:28:56.657Z,16.38
2022-12-03T23:31:28.208Z,14.35
2022-12-03T23:33:55.851Z,14.93
2022-12-03T23:36:23.475Z,19.02
2022-12-03T23:38:50.266Z,14.40
2022-12-03T23:41:18.728Z,14.63
2022-12-03T23:43:45.556Z,17.02
2022-12-03T23:46:14.000Z,12.23
2022-12-03T23:48:40.939Z,15.65
2022-12-03T23:51:08.967Z,16.05
2022-12-03T23:53:36.077Z,15.05
2022-12-03T23:56:06.155Z,20.25
2022-12-03T23:58:33.922Z,21.27
